createdAt,value
2019-05-01T00:01:21.364Z,17.20
2019-05-01T00:04:16.640Z,17.93
2019-05-01T00:06:50.329Z,18.93
2019-05-01T00:09:21.615Z,18.33
2019-05-01T00:11:51.977Z,19.50
2019-05-01T00:14:22.881Z,21.23
2019-05-01T00:16:53.209Z,19.03
2019-05-01T00:19:23.617Z,19.63
2019-05-01T00:21:54.234Z,19.03
2019-05-01T00:24:25.159Z,25.13
2019-05-01T00:26:55.403Z,21.27
2019-05-01T00:29:26.037Z,20.70
2019-05-01T00:31:56.548Z,19.60
2019-05-01T00:34:26.952Z,22.60
2019-05-01T00:36:57.185Z,20.03
2019-05-01T00:39:27.448Z,21.90
2019-05-01T00:41:57.963Z,22.70
2019-05-01T00:44:28.236Z,23.13
2019-05-01T00:46:58.830Z,23.10
2019-05-01T00:49:29.099Z,23.93
2019-05-01T00:52:00.580Z,24.70
2019-05-01T00:54:32.832Z,25.93
2019-05-01T00:57:28.293Z,22.50
2019-05-01T01:00:17.497Z,23.67
2019-05-01T01:02:51.357Z,21.03
2019-05-01T01:05:21.942Z,25.00
2019-05-01T01:07:52.350Z,25.20
2019-05-01T01:10:22.598Z,23.23
2019-05-01T01:12:52.872Z,20.47
2019-05-01T01:15:23.176Z,20.83
2019-05-01T01:17:53.405Z,21.43
2019-05-01T01:20:23.758Z,20.00
2019-05-01T01:22:54.016Z,21.13
2019-05-01T01:25:24.853Z,19.33
2019-05-01T01:27:55.262Z,23.17
2019-05-01T01:30:25.648Z,23.17
2019-05-01T01:32:55.976Z,19.93
2019-05-01T01:35:26.590Z,21.20
2019-05-01T01:37:57.270Z,20.70
2019-05-01T01:40:27.574Z,22.20
2019-05-01T01:43:09.960Z,22.17
2019-05-01T01:45:46.954Z,23.33
2019-05-01T01:48:17.966Z,24.67
2019-05-01T01:50:48.461Z,25.23
2019-05-01T01:53:21.140Z,22.13
2019-05-01T01:55:52.016Z,24.10
2019-05-01T01:58:23.529Z,22.30
2019-05-01T02:01:20.756Z,20.50
2019-05-01T02:03:55.973Z,20.93
2019-05-01T02:06:26.638Z,23.87
2019-05-01T02:08:57.052Z,20.73
2019-05-01T02:11:27.683Z,20.90
2019-05-01T02:13:58.779Z,20.03
2019-05-01T02:16:29.341Z,22.60
2019-05-01T02:18:59.598Z,22.33
2019-05-01T02:21:30.255Z,20.10
2019-05-01T02:24:00.570Z,20.37
2019-05-01T02:26:35.151Z,21.00
2019-05-01T02:29:18.381Z,24.23
2019-05-01T02:31:51.246Z,24.70
2019-05-01T02:34:22.449Z,23.20
2019-05-01T02:36:54.596Z,22.03
2019-05-01T02:39:26.708Z,20.53
2019-05-01T02:42:10.712Z,21.57
2019-05-01T02:44:49.674Z,22.43
2019-05-01T02:47:24.265Z,22.90
2019-05-01T02:50:06.162Z,21.63
2019-05-01T02:52:38.759Z,23.27
2019-05-01T02:55:27.660Z,22.00
2019-05-01T02:57:59.141Z,21.50
2019-05-01T03:00:30.164Z,22.50
2019-05-01T03:03:03.036Z,21.57
2019-05-01T03:05:33.709Z,21.93
2019-05-01T03:08:04.449Z,19.97
2019-05-01T03:10:35.198Z,25.50
2019-05-01T03:13:05.789Z,21.47
2019-05-01T03:15:38.028Z,25.13
2019-05-01T03:18:19.333Z,23.10
2019-05-01T03:21:14.557Z,25.50
2019-05-01T03:23:50.590Z,23.10
2019-05-01T03:26:21.049Z,25.13
2019-05-01T03:28:51.471Z,26.30
2019-05-01T03:31:21.851Z,26.03
2019-05-01T03:33:52.797Z,27.07
2019-05-01T03:36:23.243Z,26.13
2019-05-01T03:38:54.894Z,25.83
2019-05-01T03:41:25.194Z,28.00
2019-05-01T03:43:55.841Z,24.73
2019-05-01T03:46:27.163Z,26.17
2019-05-01T03:48:57.670Z,24.73
2019-05-01T03:51:28.361Z,30.10
2019-05-01T03:53:59.087Z,28.80
2019-05-01T03:56:30.429Z,29.33
2019-05-01T03:59:01.338Z,28.47
2019-05-01T04:01:53.639Z,29.43
2019-05-01T04:04:26.694Z,27.20
2019-05-01T04:06:57.192Z,26.13
2019-05-01T04:09:27.517Z,25.03
2019-05-01T04:11:58.606Z,29.07
2019-05-01T04:14:28.917Z,26.67
2019-05-01T04:17:10.322Z,31.40
2019-05-01T04:19:41.626Z,32.00
2019-05-01T04:22:13.217Z,27.17
2019-05-01T04:24:44.491Z,30.60
2019-05-01T04:27:21.758Z,31.07
2019-05-01T04:29:58.614Z,30.53
2019-05-01T04:32:51.216Z,33.20
2019-05-01T04:35:22.428Z,30.07
2019-05-01T04:37:55.540Z,35.13
2019-05-01T04:40:26.758Z,34.37
2019-05-01T04:42:57.531Z,37.60
2019-05-01T04:45:29.046Z,33.87
2019-05-01T04:47:59.571Z,30.53
2019-05-01T04:50:30.183Z,30.13
2019-05-01T04:53:00.999Z,25.17
2019-05-01T04:55:31.882Z,24.93
2019-05-01T04:58:03.563Z,34.10
2019-05-01T05:00:34.196Z,31.10
2019-05-01T05:03:11.012Z,34.33
2019-05-01T05:05:41.386Z,31.87
2019-05-01T05:08:12.127Z,28.50
2019-05-01T05:10:42.680Z,31.47
2019-05-01T05:13:27.274Z,33.20
2019-05-01T05:16:15.520Z,33.67
2019-05-01T05:18:46.303Z,29.87
2019-05-01T05:21:16.654Z,32.60
2019-05-01T05:23:47.475Z,29.90
2019-05-01T05:26:19.121Z,29.23
2019-05-01T05:28:51.174Z,28.27
2019-05-01T05:31:23.744Z,30.83
2019-05-01T05:33:56.353Z,30.97
2019-05-01T05:36:28.961Z,29.67
2019-05-01T05:39:19.042Z,31.90
2019-05-01T05:42:02.722Z,34.83
2019-05-01T05:44:33.373Z,36.37
2019-05-01T05:47:03.842Z,30.97
2019-05-01T05:49:34.400Z,39.07
2019-05-01T05:52:27.510Z,38.93
2019-05-01T05:55:19.070Z,33.43
2019-05-01T05:58:15.044Z,42.63
2019-05-01T06:01:14.562Z,41.07
2019-05-01T06:04:14.823Z,38.40
2019-05-01T06:07:05.017Z,42.33
2019-05-01T06:10:06.084Z,39.33
2019-05-01T06:12:56.719Z,49.43
2019-05-01T06:15:49.096Z,50.30
2019-05-01T06:18:24.569Z,53.47
2019-05-01T06:21:16.873Z,41.50
2019-05-01T06:24:05.741Z,46.90
2019-05-01T06:26:37.796Z,46.57
2019-05-01T06:29:07.715Z,41.70
2019-05-01T06:31:38.648Z,44.83
2019-05-01T06:34:09.389Z,43.43
2019-05-01T06:36:44.432Z,45.27
2019-05-01T06:39:13.382Z,50.90
2019-05-01T06:41:45.072Z,48.10
2019-05-01T06:44:48.956Z,46.93
2019-05-01T06:47:47.914Z,44.10
2019-05-01T06:50:32.150Z,48.93
2019-05-01T06:53:04.626Z,51.20
2019-05-01T06:55:36.928Z,49.60
2019-05-01T06:58:07.964Z,49.00
2019-05-01T07:00:43.050Z,56.93
2019-05-01T07:03:13.385Z,50.97
2019-05-01T07:05:44.710Z,50.67
2019-05-01T07:08:24.501Z,48.23
2019-05-01T07:10:47.876Z,52.43
2019-05-01T07:13:18.795Z,42.03
2019-05-01T07:15:49.760Z,41.53
2019-05-01T07:18:23.721Z,44.07
2019-05-01T07:20:53.554Z,46.37
2019-05-01T07:23:24.594Z,48.00
2019-05-01T07:25:55.553Z,53.93
2019-05-01T07:28:28.846Z,53.17
2019-05-01T07:31:12.822Z,53.50
2019-05-01T07:33:47.147Z,52.57
2019-05-01T07:36:17.802Z,49.67
2019-05-01T07:38:49.244Z,46.80
2019-05-01T07:41:20.086Z,42.47
2019-05-01T07:44:09.510Z,38.50
2019-05-01T07:47:05.430Z,40.70
2019-05-01T07:49:58.664Z,43.83
2019-05-01T07:52:30.707Z,39.07
2019-05-01T07:55:01.690Z,42.87
2019-05-01T07:57:34.350Z,37.90
2019-05-01T08:00:08.607Z,45.27
2019-05-01T08:02:39.450Z,42.67
2019-05-01T08:05:11.709Z,44.30
2019-05-01T08:07:42.520Z,46.43
2019-05-01T08:10:12.909Z,41.43
2019-05-01T08:12:45.136Z,41.73
2019-05-01T08:15:15.315Z,39.63
2019-05-01T08:17:48.890Z,46.60
2019-05-01T08:20:25.700Z,41.07
2019-05-01T08:22:56.028Z,44.50
2019-05-01T08:25:28.697Z,44.27
2019-05-01T08:28:04.652Z,44.53
2019-05-01T08:30:54.069Z,36.70
2019-05-01T08:33:49.944Z,42.93
2019-05-01T08:36:19.286Z,44.17
2019-05-01T08:38:49.727Z,43.57
2019-05-01T08:41:20.105Z,42.13
2019-05-01T08:43:54.068Z,44.17
2019-05-01T08:46:40.867Z,39.33
2019-05-01T08:49:30.559Z,47.50
2019-05-01T08:52:04.730Z,41.70
2019-05-01T08:54:33.606Z,40.10
2019-05-01T08:57:07.787Z,42.77
2019-05-01T08:59:37.547Z,38.97
2019-05-01T09:02:09.748Z,36.53
2019-05-01T09:04:40.073Z,42.33
2019-05-01T09:07:14.601Z,42.17
2019-05-01T09:09:45.415Z,43.57
2019-05-01T09:12:17.108Z,42.37
2019-05-01T09:14:47.400Z,43.70
2019-05-01T09:17:17.772Z,44.93
2019-05-01T09:19:48.183Z,44.40
2019-05-01T09:22:18.921Z,43.33
2019-05-01T09:24:49.568Z,41.83
2019-05-01T09:27:51.105Z,46.70
2019-05-01T09:30:29.234Z,46.07
2019-05-01T09:32:59.734Z,44.07
2019-05-01T09:35:30.164Z,46.17
2019-05-01T09:38:00.538Z,44.80
2019-05-01T09:40:30.992Z,44.83
2019-05-01T09:43:02.172Z,47.70
2019-05-01T09:45:33.487Z,42.43
2019-05-01T09:48:03.896Z,42.50
2019-05-01T09:50:35.910Z,43.87
2019-05-01T09:53:29.736Z,42.27
2019-05-01T09:56:19.261Z,40.30
2019-05-01T09:58:49.978Z,42.33
2019-05-01T10:01:24.118Z,41.70
2019-05-01T10:03:54.643Z,42.73
2019-05-01T10:06:25.171Z,43.17
2019-05-01T10:08:55.522Z,44.83
2019-05-01T10:11:26.081Z,39.73
2019-05-01T10:13:58.451Z,40.13
2019-05-01T10:16:29.032Z,42.63
2019-05-01T10:18:59.322Z,41.73
2019-05-01T10:21:29.659Z,43.03
2019-05-01T10:23:59.965Z,41.13
2019-05-01T10:26:31.936Z,42.30
2019-05-01T10:29:27.643Z,42.93
2019-05-01T10:32:24.017Z,38.17
2019-05-01T10:35:01.387Z,42.87
2019-05-01T10:37:33.698Z,42.47
2019-05-01T10:40:04.129Z,42.67
2019-05-01T10:42:34.573Z,42.03
2019-05-01T10:45:05.690Z,45.33
2019-05-01T10:47:35.984Z,40.30
2019-05-01T10:50:06.552Z,43.80
2019-05-01T10:52:36.873Z,41.30
2019-05-01T10:55:08.446Z,46.00
2019-05-01T10:57:40.660Z,42.17
2019-05-01T11:00:12.313Z,44.00
2019-05-01T11:02:42.741Z,42.97
2019-05-01T11:05:13.348Z,43.90
2019-05-01T11:07:43.899Z,41.47
2019-05-01T11:10:15.796Z,45.33
2019-05-01T11:12:46.515Z,44.77
2019-05-01T11:15:16.979Z,42.87
2019-05-01T11:17:47.371Z,46.63
2019-05-01T11:20:18.072Z,42.70
2019-05-01T11:22:48.705Z,39.90
2019-05-01T11:25:20.742Z,42.23
2019-05-01T11:27:51.152Z,41.83
2019-05-01T11:30:21.623Z,41.47
2019-05-01T11:33:11.289Z,45.03
2019-05-01T11:36:09.182Z,42.30
2019-05-01T11:38:44.824Z,45.23
2019-05-01T11:41:22.485Z,43.43
2019-05-01T11:43:53.177Z,43.80
2019-05-01T11:46:23.968Z,45.37
2019-05-01T11:48:55.012Z,42.00
2019-05-01T11:51:25.413Z,45.17
2019-05-01T11:53:55.656Z,44.03
2019-05-01T11:56:26.362Z,42.10
2019-05-01T11:58:56.779Z,44.37
2019-05-01T12:01:27.610Z,46.47
2019-05-01T12:03:57.958Z,46.40
2019-05-01T12:06:28.680Z,45.37
2019-05-01T12:08:59.471Z,45.70
2019-05-01T12:11:32.659Z,48.50
2019-05-01T12:14:03.056Z,46.13
2019-05-01T12:16:52.095Z,46.20
2019-05-01T12:19:23.314Z,43.10
2019-05-01T12:21:53.658Z,43.13
2019-05-01T12:24:23.982Z,44.47
2019-05-01T12:26:54.908Z,47.87
2019-05-01T12:29:25.630Z,44.70
2019-05-01T12:31:56.336Z,44.13
2019-05-01T12:34:26.736Z,45.73
2019-05-01T12:37:22.560Z,46.30
2019-05-01T12:39:53.299Z,45.23
2019-05-01T12:42:24.879Z,42.03
2019-05-01T12:44:55.165Z,45.70
2019-05-01T12:47:42.725Z,46.35
2019-05-01T12:50:13.799Z,44.03
2019-05-01T12:53:01.563Z,44.17
2019-05-01T12:55:50.227Z,49.20
2019-05-01T12:58:20.638Z,48.00
2019-05-01T13:00:53.381Z,43.50
2019-05-01T13:03:23.721Z,42.73
2019-05-01T13:05:54.071Z,41.33
2019-05-01T13:08:24.493Z,39.90
2019-05-01T13:10:55.563Z,42.17
2019-05-01T13:13:25.971Z,40.00
2019-05-01T13:15:56.290Z,42.97
2019-05-01T13:18:27.038Z,46.00
2019-05-01T13:20:58.295Z,44.33
2019-05-01T13:23:28.604Z,44.13
2019-05-01T13:26:05.759Z,44.77
2019-05-01T13:29:04.386Z,44.77
2019-05-01T13:31:40.189Z,45.13
2019-05-01T13:34:11.514Z,47.80
2019-05-01T13:36:41.776Z,44.90
2019-05-01T13:39:13.666Z,44.57
2019-05-01T13:41:44.249Z,45.03
2019-05-01T13:44:14.892Z,44.50
2019-05-01T13:46:46.257Z,45.63
2019-05-01T13:49:17.421Z,45.30
2019-05-01T13:51:48.036Z,44.63
2019-05-01T13:54:18.469Z,40.40
2019-05-01T13:56:49.038Z,41.70
2019-05-01T13:59:19.764Z,47.77
2019-05-01T14:01:50.481Z,45.83
2019-05-01T14:04:21.919Z,42.87
2019-05-01T14:06:53.231Z,45.43
2019-05-01T14:09:30.059Z,41.27
2019-05-01T14:12:00.322Z,43.57
2019-05-01T14:14:30.630Z,45.03
2019-05-01T14:17:00.944Z,42.10
2019-05-01T14:19:31.794Z,42.17
2019-05-01T14:22:15.444Z,44.80
2019-05-01T14:24:49.670Z,42.83
2019-05-01T14:27:20.501Z,44.03
2019-05-01T14:29:50.795Z,46.07
2019-05-01T14:32:21.056Z,43.97
2019-05-01T14:34:51.401Z,45.60
2019-05-01T14:37:29.468Z,48.03
2019-05-01T14:39:54.476Z,48.53
2019-05-01T14:42:25.087Z,46.10
2019-05-01T14:44:55.961Z,46.63
2019-05-01T14:47:26.748Z,45.70
2019-05-01T14:49:57.924Z,44.33
2019-05-01T14:52:28.571Z,47.90
2019-05-01T14:54:58.963Z,45.77
2019-05-01T14:57:29.639Z,45.13
2019-05-01T14:59:59.983Z,43.53
2019-05-01T15:02:30.661Z,47.90
2019-05-01T15:05:00.986Z,48.23
2019-05-01T15:07:42.653Z,46.55
2019-05-01T15:10:04.515Z,50.57
2019-05-01T15:12:35.159Z,47.50
2019-05-01T15:15:20.022Z,45.40
2019-05-01T15:18:05.050Z,48.27
2019-05-01T15:20:35.372Z,50.83
2019-05-01T15:23:05.855Z,47.67
2019-05-01T15:25:36.209Z,48.50
2019-05-01T15:28:06.625Z,41.53
2019-05-01T15:30:36.863Z,45.00
2019-05-01T15:33:07.843Z,45.90
2019-05-01T15:35:38.154Z,44.23
2019-05-01T15:38:09.195Z,46.17
2019-05-01T15:41:01.854Z,40.93
2019-05-01T15:43:34.232Z,44.93
2019-05-01T15:46:04.641Z,47.30
2019-05-01T15:48:35.226Z,46.73
2019-05-01T15:51:06.178Z,48.00
2019-05-01T15:53:36.889Z,45.47
2019-05-01T15:56:07.714Z,51.70
2019-05-01T15:58:38.127Z,45.47
2019-05-01T16:01:08.869Z,49.33
2019-05-01T16:03:39.716Z,50.00
2019-05-01T16:06:10.352Z,49.77
2019-05-01T16:08:40.602Z,48.93
2019-05-01T16:11:35.756Z,49.37
2019-05-01T16:14:06.097Z,50.23
2019-05-01T16:16:36.793Z,50.80
2019-05-01T16:19:07.450Z,51.67
2019-05-01T16:21:38.180Z,49.27
2019-05-01T16:24:09.071Z,50.63
2019-05-01T16:26:39.400Z,47.00
2019-05-01T16:29:10.069Z,53.20
2019-05-01T16:31:40.358Z,51.73
2019-05-01T16:34:10.644Z,52.37
2019-05-01T16:36:40.978Z,49.43
2019-05-01T16:39:35.430Z,53.23
2019-05-01T16:42:06.531Z,51.30
2019-05-01T16:44:36.846Z,46.57
2019-05-01T16:47:07.507Z,49.37
2019-05-01T16:49:37.948Z,57.43
2019-05-01T16:52:08.566Z,52.07
2019-05-01T16:54:38.813Z,51.23
2019-05-01T16:57:13.540Z,55.27
2019-05-01T16:59:43.912Z,52.87
2019-05-01T17:02:39.261Z,51.40
2019-05-01T17:05:28.479Z,54.50
2019-05-01T17:08:17.705Z,55.63
2019-05-01T17:10:49.731Z,57.87
2019-05-01T17:13:20.515Z,56.60
2019-05-01T17:15:51.425Z,49.67
2019-05-01T17:18:22.132Z,53.50
2019-05-01T17:20:52.444Z,51.43
2019-05-01T17:23:23.304Z,53.13
2019-05-01T17:25:53.653Z,50.60
2019-05-01T17:28:23.943Z,51.30
2019-05-01T17:30:58.813Z,48.13
2019-05-01T17:33:29.627Z,45.17
2019-05-01T17:35:59.885Z,50.20
2019-05-01T17:38:30.227Z,48.73
2019-05-01T17:41:00.953Z,51.13
2019-05-01T17:43:32.131Z,46.43
2019-05-01T17:46:05.861Z,50.13
2019-05-01T17:48:34.899Z,51.07
2019-05-01T17:51:05.359Z,52.83
2019-05-01T17:53:35.696Z,45.60
2019-05-01T17:56:10.194Z,47.67
2019-05-01T17:58:38.746Z,43.20
2019-05-01T18:01:27.418Z,50.73
2019-05-01T18:04:13.711Z,47.90
2019-05-01T18:06:47.781Z,44.57
2019-05-01T18:09:18.703Z,45.73
2019-05-01T18:11:52.126Z,44.33
2019-05-01T18:14:21.093Z,38.30
2019-05-01T18:16:51.346Z,44.07
2019-05-01T18:19:21.988Z,47.70
2019-05-01T18:22:04.464Z,45.90
2019-05-01T18:24:59.751Z,49.90
2019-05-01T18:27:49.856Z,42.43
2019-05-01T18:30:21.927Z,48.87
2019-05-01T18:32:52.743Z,45.23
2019-05-01T18:35:23.944Z,41.90
2019-05-01T18:37:59.825Z,44.87
2019-05-01T18:40:36.734Z,47.80
2019-05-01T18:43:07.844Z,40.23
2019-05-01T18:45:52.939Z,41.27
2019-05-01T18:48:24.057Z,48.73
2019-05-01T18:50:57.568Z,44.70
2019-05-01T18:53:28.290Z,42.03
2019-05-01T18:56:01.417Z,44.47
2019-05-01T18:58:30.715Z,47.40
2019-05-01T19:01:04.073Z,45.30
2019-05-01T19:03:37.140Z,39.90
2019-05-01T19:06:05.578Z,48.07
2019-05-01T19:08:35.832Z,43.77
2019-05-01T19:11:12.717Z,43.47
2019-05-01T19:13:38.586Z,43.50
2019-05-01T19:16:09.949Z,48.13
2019-05-01T19:18:40.371Z,43.03
2019-05-01T19:21:11.249Z,41.77
2019-05-01T19:23:41.588Z,45.90
2019-05-01T19:26:13.664Z,43.00
2019-05-01T19:28:43.931Z,44.17
2019-05-01T19:31:14.791Z,46.23
2019-05-01T19:33:45.599Z,45.07
2019-05-01T19:36:15.940Z,41.57
2019-05-01T19:38:46.244Z,45.60
2019-05-01T19:41:16.796Z,45.87
2019-05-01T19:43:47.436Z,45.63
2019-05-01T19:46:17.764Z,44.33
2019-05-01T19:48:50.897Z,46.60
2019-05-01T19:51:24.165Z,44.67
2019-05-01T19:53:53.482Z,44.37
2019-05-01T19:56:24.280Z,45.67
2019-05-01T19:58:55.225Z,51.97
2019-05-01T20:01:26.124Z,44.40
2019-05-01T20:03:56.362Z,50.00
2019-05-01T20:06:26.586Z,49.73
2019-05-01T20:08:56.893Z,45.30
2019-05-01T20:11:27.924Z,48.50
2019-05-01T20:13:58.136Z,54.87
2019-05-01T20:16:28.464Z,45.53
2019-05-01T20:18:58.767Z,46.80
2019-05-01T20:21:29.028Z,50.67
2019-05-01T20:23:59.249Z,51.43
2019-05-01T20:26:32.055Z,48.40
2019-05-01T20:29:01.820Z,55.33
2019-05-01T20:31:32.930Z,55.33
2019-05-01T20:34:03.815Z,54.53
2019-05-01T20:36:34.098Z,55.50
2019-05-01T20:39:06.522Z,53.80
2019-05-01T20:41:37.056Z,50.20
2019-05-01T20:44:07.237Z,50.13
2019-05-01T20:46:38.135Z,51.07
2019-05-01T20:49:08.522Z,58.43
2019-05-01T20:51:38.739Z,55.40
2019-05-01T20:54:09.112Z,55.93
2019-05-01T20:56:47.866Z,53.87
2019-05-01T20:59:18.132Z,54.17
2019-05-01T21:01:48.642Z,50.80
2019-05-01T21:04:37.929Z,52.63
2019-05-01T21:07:15.405Z,54.93
2019-05-01T21:09:52.651Z,55.63
2019-05-01T21:12:20.420Z,57.57
2019-05-01T21:14:51.077Z,59.10
2019-05-01T21:17:21.411Z,57.00
2019-05-01T21:19:52.026Z,55.37
2019-05-01T21:22:23.410Z,56.03
2019-05-01T21:24:53.781Z,54.43
2019-05-01T21:27:24.418Z,54.97
2019-05-01T21:29:54.727Z,54.63
2019-05-01T21:32:27.495Z,58.00
2019-05-01T21:34:56.907Z,58.20
2019-05-01T21:37:27.132Z,56.40
2019-05-01T21:39:57.976Z,59.07
2019-05-01T21:42:28.322Z,54.83
2019-05-01T21:44:58.968Z,54.83
2019-05-01T21:47:33.426Z,60.97
2019-05-01T21:50:03.984Z,53.70
2019-05-01T21:52:34.359Z,57.57
2019-05-01T21:55:04.651Z,57.67
2019-05-01T21:57:38.683Z,59.27
2019-05-01T22:00:08.156Z,57.43
2019-05-01T22:02:41.703Z,58.90
2019-05-01T22:05:10.905Z,58.33
2019-05-01T22:07:41.598Z,59.60
2019-05-01T22:10:12.056Z,56.67
2019-05-01T22:12:43.877Z,61.67
2019-05-01T22:15:22.016Z,59.07
2019-05-01T22:18:06.642Z,63.93
2019-05-01T22:20:41.886Z,55.63
2019-05-01T22:23:17.096Z,59.27
2019-05-01T22:25:49.288Z,60.37
2019-05-01T22:28:43.821Z,60.57
2019-05-01T22:31:32.874Z,61.60
2019-05-01T22:34:15.171Z,58.90
2019-05-01T22:36:45.843Z,56.87
2019-05-01T22:39:16.070Z,60.13
2019-05-01T22:41:46.326Z,55.13
2019-05-01T22:44:17.986Z,55.60
2019-05-01T22:46:49.971Z,57.00
2019-05-01T22:49:20.347Z,60.33
2019-05-01T22:51:51.239Z,60.67
2019-05-01T22:54:21.494Z,59.40
2019-05-01T22:56:51.861Z,59.20
2019-05-01T22:59:22.101Z,54.50
2019-05-01T23:01:54.313Z,57.97
2019-05-01T23:04:24.696Z,55.93
2019-05-01T23:06:55.245Z,57.37
2019-05-01T23:09:28.558Z,57.67
2019-05-01T23:11:59.150Z,63.00
2019-05-01T23:14:30.223Z,63.37
2019-05-01T23:17:18.407Z,58.10
2019-05-01T23:20:03.855Z,63.87
2019-05-01T23:22:30.995Z,64.67
2019-05-01T23:25:01.231Z,66.20
2019-05-01T23:27:32.145Z,67.80
2019-05-01T23:30:03.387Z,59.40
2019-05-01T23:32:36.663Z,56.30
2019-05-01T23:35:07.085Z,59.93
2019-05-01T23:37:37.413Z,60.07
2019-05-01T23:40:10.943Z,65.07
2019-05-01T23:42:43.338Z,61.30
2019-05-01T23:45:12.109Z,58.57
2019-05-01T23:47:43.888Z,60.43
2019-05-01T23:50:15.599Z,57.60
2019-05-01T23:52:45.838Z,61.73
2019-05-01T23:55:16.208Z,64.53
2019-05-01T23:57:46.465Z,59.33
